Terminal Aerodrome Forecast
Issued by NWS

Home | Current Version | Previous Version | Text Only | Print | Product List | Glossary On
Versions: 1 2 3 4 5 6 7 8 9 10 11 12 13 14 15 16 17 18 19 20 21 22 23
000
FTUS43 KICT 242339
TAFCNU
TAF
KCNU 242339Z 2500/2524 17008KT P6SM BKN120
     FM250200 16007KT P6SM VCTS SCT035CB BKN070
      TEMPO 2502/2506 3SM +TSRA OVC035CB
     FM251000 15006KT P6SM VCTS SCT025 BKN060CB
     FM251600 14006KT P6SM VCSH BKN035
     FM252100 13008KT P6SM VCTS SCT035CB BKN100=

USA.gov is the U.S. government's official web portal to all federal, state and local government web resources and services.